Aérodrome :
LOGIN :

S'inscrire | Disclaimer

   EN    FR    IT 

 










Légende :    VFR   VFR Marginal   IFR   IFR Intensif   IFR Très Intensif
Visi : 
Plafond : 
>= 8 km
>= 3000ft
5 à 8 km
1000 à 3000 ft
1500m à 5 km
500 à 1000 ft
800 à 1500m
200 à 500 ft
< 800m
< 200 ft
Symboles :   Orages  Brouillard  Fortes neiges  Fortes précipitations  Vent > 20 kt
SIGMETs :   Divers  Orages  Givrage  Turbulence  Onde Orograph.  Cendres Volcan.







- Altitude de l'aérodrome : 47 ft
- Code IATA : CBG
- Voir les cartes d'approche


EGSC - Cambridge

METARs EXPIRÉS :
  • 231750Z 21013KT 9999 BKN022 13/10 Q1011
  • 231720Z 22012KT 9999 FEW022 BKN024 13/10 Q1011

TAF TAF EGSC
Valide du 23 à 18h jusqu'au 23 à 21h UTC


231701Z 2318/2321 21014KT 9999 FEW013 SCT035
TEMPO 2318/2321 BKN014
PROB30
TEMPO 2318/2321 8000 -RA BKN009
Pas de NOTAMs connus pour ce terrain.
1 SIGMET publié pour la FIR London (EGTT) :
 
Onde orographique forte
EGTT SIGMET 02 VALID 231900/232300 EGRR
EGTT LONDON FIR SEV MTW FCST WI N5443 E00205 - N5356 W00137 - N5500 W00216 - N5500 W00100 - N5500 E00153 - N5443 E00205 SFC/FL150 STNR WKN=



MET'MAP, la Météo Aéronautique d'un coup d'oeil ! - Copyright ORBIFLY Décembre 2007 - Disclaimer

ORBIFLY MET'MAP TEAM :

Programmation & Développement : Alexandra Zaïnal
Conception & Développement : Baudouin d'Aumeries
Co-Programmation & Développement : Marc-Olivier Méhu
Soutien technique & logistique : Manuel Goepfert

Contact : metmap@orbifly.com




SOURCES & CREDITS :

   NOAA